createdAt,value
2023-05-13T00:00:00.282Z,10.18
2023-05-13T00:02:28.070Z,8.27
2023-05-13T00:04:54.966Z,8.55
2023-05-13T00:07:21.871Z,8.52
2023-05-13T00:09:48.598Z,7.30
2023-05-13T00:12:15.490Z,9.15
2023-05-13T00:14:44.743Z,10.02
2023-05-13T00:17:11.510Z,8.02
2023-05-13T00:19:43.858Z,8.15
2023-05-13T00:22:11.042Z,9.23
2023-05-13T00:24:37.939Z,7.22
2023-05-13T00:27:04.896Z,11.57
2023-05-13T00:29:31.560Z,11.05
2023-05-13T00:31:58.434Z,8.68
2023-05-13T00:34:25.501Z,12.40
2023-05-13T00:36:52.277Z,9.50
2023-05-13T00:39:19.196Z,12.40
2023-05-13T00:41:46.263Z,10.00
2023-05-13T00:44:14.547Z,8.63
2023-05-13T00:46:42.187Z,11.60
2023-05-13T00:49:09.123Z,9.85
2023-05-13T00:51:36.839Z,11.00
2023-05-13T00:54:04.624Z,10.25
2023-05-13T00:56:31.256Z,13.52
2023-05-13T00:58:58.110Z,10.52
2023-05-13T01:02:07.637Z,9.63
2023-05-13T01:04:53.319Z,12.73
2023-05-13T01:07:44.614Z,8.48
2023-05-13T01:10:15.634Z,9.23
2023-05-13T01:12:44.971Z,10.88
2023-05-13T01:15:16.256Z,11.98
2023-05-13T01:18:00.390Z,9.90
2023-05-13T01:20:28.343Z,11.43
2023-05-13T01:22:56.538Z,9.00
2023-05-13T01:25:25.550Z,9.23
2023-05-13T01:27:53.284Z,10.13
2023-05-13T01:30:21.395Z,11.48
2023-05-13T01:32:49.373Z,11.38
2023-05-13T01:35:17.627Z,14.80
2023-05-13T01:37:46.633Z,9.48
2023-05-13T01:40:30.563Z,10.70
2023-05-13T01:43:01.594Z,10.85
2023-05-13T01:45:29.990Z,11.25
2023-05-13T01:47:57.197Z,12.38
2023-05-13T01:50:26.448Z,13.15
2023-05-13T01:52:53.256Z,10.60
2023-05-13T01:55:20.193Z,12.18
2023-05-13T01:57:48.696Z,12.80
2023-05-13T02:00:15.908Z,12.35
2023-05-13T02:02:42.644Z,10.68
2023-05-13T02:05:09.608Z,14.15
2023-05-13T02:07:37.346Z,10.10
2023-05-13T02:10:04.463Z,13.82
2023-05-13T02:12:32.628Z,12.40
2023-05-13T02:14:59.283Z,11.23
2023-05-13T02:17:26.183Z,10.20
2023-05-13T02:19:53.728Z,11.52
2023-05-13T02:22:20.791Z,12.40
2023-05-13T02:24:47.589Z,12.32
2023-05-13T02:27:16.373Z,14.18
2023-05-13T02:29:43.187Z,12.57
2023-05-13T02:32:10.880Z,14.00
2023-05-13T02:34:37.749Z,15.55
2023-05-13T02:37:05.196Z,15.70
2023-05-13T02:39:34.723Z,14.63
2023-05-13T02:42:03.066Z,12.50
2023-05-13T02:44:32.334Z,13.50
2023-05-13T02:47:00.872Z,12.88
2023-05-13T02:49:27.652Z,11.75
2023-05-13T02:51:55.032Z,11.90
2023-05-13T02:54:28.799Z,13.57
2023-05-13T02:56:55.615Z,12.93
2023-05-13T02:59:22.715Z,12.75
2023-05-13T03:01:49.520Z,12.70
2023-05-13T03:04:16.480Z,15.77
2023-05-13T03:06:43.458Z,14.20
2023-05-13T03:09:10.183Z,12.57
2023-05-13T03:11:37.105Z,12.18
2023-05-13T03:14:05.494Z,14.80
2023-05-13T03:16:32.498Z,14.50
2023-05-13T03:18:59.430Z,12.65
2023-05-13T03:21:26.461Z,11.70
2023-05-13T03:23:54.153Z,18.95
2023-05-13T03:26:21.747Z,15.27
2023-05-13T03:28:48.547Z,13.45
2023-05-13T03:31:16.301Z,12.48
2023-05-13T03:33:43.904Z,13.10
2023-05-13T03:36:12.603Z,13.68
2023-05-13T03:38:39.548Z,12.27
2023-05-13T03:41:07.160Z,12.38
2023-05-13T03:43:34.089Z,16.45
2023-05-13T03:46:03.868Z,13.65
2023-05-13T03:48:30.989Z,14.23
2023-05-13T03:51:01.531Z,14.57
2023-05-13T03:53:29.595Z,13.50
2023-05-13T03:55:56.396Z,13.55
2023-05-13T03:58:23.221Z,13.35
2023-05-13T04:00:50.470Z,13.57
2023-05-13T04:03:18.208Z,12.95
2023-05-13T04:05:48.826Z,15.55
2023-05-13T04:08:15.909Z,12.18
2023-05-13T04:10:43.918Z,14.38
2023-05-13T04:13:11.760Z,13.00
2023-05-13T04:15:38.558Z,12.25
2023-05-13T04:18:06.471Z,15.35
2023-05-13T04:20:39.178Z,13.88
2023-05-13T04:23:06.695Z,11.65
2023-05-13T04:25:35.290Z,12.27
2023-05-13T04:28:02.369Z,12.85
2023-05-13T04:30:33.315Z,14.65
2023-05-13T04:33:00.041Z,13.57
2023-05-13T04:35:27.201Z,12.73
2023-05-13T04:37:57.814Z,11.07
2023-05-13T04:40:24.854Z,10.98
2023-05-13T04:42:55.256Z,14.65
2023-05-13T04:45:32.780Z,19.50
2023-05-13T04:48:00.563Z,13.30
2023-05-13T04:50:27.365Z,13.70
2023-05-13T04:52:56.406Z,14.88
2023-05-13T04:55:26.719Z,14.50
2023-05-13T04:57:55.027Z,13.75
2023-05-13T05:00:22.965Z,13.63
2023-05-13T05:02:51.207Z,16.10
2023-05-13T05:05:18.691Z,13.52
2023-05-13T05:07:46.089Z,13.73
2023-05-13T05:10:13.465Z,13.32
2023-05-13T05:12:44.185Z,12.65
2023-05-13T05:15:16.095Z,15.90
2023-05-13T05:17:45.944Z,12.40
2023-05-13T05:20:13.592Z,12.60
2023-05-13T05:22:42.159Z,14.75
2023-05-13T05:25:11.554Z,12.35
2023-05-13T05:27:38.487Z,12.27
2023-05-13T05:30:06.022Z,14.90
2023-05-13T05:32:34.690Z,16.95
2023-05-13T05:35:04.089Z,13.90
2023-05-13T05:37:32.373Z,18.42
2023-05-13T05:39:59.305Z,14.88
2023-05-13T05:42:27.357Z,18.48
2023-05-13T05:44:54.134Z,12.85
2023-05-13T05:47:20.972Z,14.40
2023-05-13T05:49:48.083Z,15.25
2023-05-13T05:52:15.716Z,13.00
2023-05-13T05:54:43.553Z,14.43
2023-05-13T05:57:10.432Z,20.60
2023-05-13T05:59:37.470Z,17.27
2023-05-13T06:02:04.826Z,17.05
2023-05-13T06:04:31.810Z,23.05
2023-05-13T06:06:58.781Z,20.38
2023-05-13T06:09:26.191Z,16.38
2023-05-13T06:11:55.892Z,15.23
2023-05-13T06:14:23.599Z,17.60
2023-05-13T06:16:50.292Z,15.48
2023-05-13T06:19:17.092Z,14.88
2023-05-13T06:21:45.041Z,17.67
2023-05-13T06:24:11.881Z,14.98
2023-05-13T06:26:40.362Z,14.98
2023-05-13T06:29:07.041Z,13.05
2023-05-13T06:31:34.043Z,14.10
2023-05-13T06:34:01.728Z,17.35
2023-05-13T06:36:28.485Z,13.55
2023-05-13T06:38:55.449Z,14.30
2023-05-13T06:41:24.083Z,11.77
2023-05-13T06:43:52.725Z,13.88
2023-05-13T06:46:27.330Z,15.15
2023-05-13T06:48:56.879Z,15.75
2023-05-13T06:51:27.169Z,18.63
2023-05-13T06:53:54.301Z,11.95
2023-05-13T06:56:23.278Z,13.38
2023-05-13T06:58:50.456Z,13.45
2023-05-13T07:01:17.486Z,14.15
2023-05-13T07:03:44.757Z,12.52
2023-05-13T07:06:12.603Z,13.60
2023-05-13T07:08:40.353Z,14.88
2023-05-13T07:11:07.998Z,13.18
2023-05-13T07:13:35.035Z,14.82
2023-05-13T07:16:04.541Z,13.27
2023-05-13T07:18:31.336Z,13.73
2023-05-13T07:20:58.284Z,14.13
2023-05-13T07:23:24.991Z,14.38
2023-05-13T07:25:52.279Z,12.30
2023-05-13T07:28:22.239Z,11.23
2023-05-13T07:30:49.309Z,10.90
2023-05-13T07:33:16.299Z,13.30
2023-05-13T07:35:43.695Z,11.00
2023-05-13T07:38:11.205Z,15.27
2023-05-13T07:40:38.772Z,10.95
2023-05-13T07:43:05.960Z,10.70
2023-05-13T07:45:32.919Z,11.68
2023-05-13T07:47:59.726Z,10.25
2023-05-13T07:50:26.554Z,11.50
2023-05-13T07:52:53.591Z,12.07
2023-05-13T07:55:21.361Z,10.25
2023-05-13T07:57:48.476Z,11.98
2023-05-13T08:00:15.817Z,10.98
2023-05-13T08:02:43.846Z,9.82
2023-05-13T08:05:11.148Z,9.70
2023-05-13T08:07:38.196Z,10.38
2023-05-13T08:10:05.486Z,11.38
2023-05-13T08:12:32.494Z,11.55
2023-05-13T08:14:59.405Z,9.77
2023-05-13T08:17:26.460Z,12.32
2023-05-13T08:19:53.213Z,10.18
2023-05-13T08:22:20.102Z,9.80
2023-05-13T08:24:46.807Z,10.75
2023-05-13T08:27:13.721Z,10.38
2023-05-13T08:29:40.677Z,9.70
2023-05-13T08:32:07.557Z,10.68
2023-05-13T08:34:34.278Z,8.77
2023-05-13T08:37:01.066Z,9.73
2023-05-13T08:39:28.273Z,8.98
2023-05-13T08:41:57.648Z,13.05
2023-05-13T08:44:28.668Z,9.77
2023-05-13T08:47:26.582Z,13.18
2023-05-13T08:49:53.939Z,8.80
2023-05-13T08:52:22.567Z,15.20
2023-05-13T08:54:49.803Z,11.98
2023-05-13T08:57:16.852Z,8.95
2023-05-13T08:59:43.588Z,10.18
2023-05-13T09:02:10.710Z,11.32
2023-05-13T09:04:39.290Z,10.02
2023-05-13T09:07:06.241Z,10.55
2023-05-13T09:09:33.197Z,12.20
2023-05-13T09:11:59.933Z,14.88
2023-05-13T09:14:33.293Z,7.93
2023-05-13T09:17:02.106Z,11.20
2023-05-13T09:19:29.289Z,10.40
2023-05-13T09:21:57.159Z,10.88
2023-05-13T09:24:23.951Z,10.70
2023-05-13T09:26:51.888Z,10.50
2023-05-13T09:29:26.513Z,11.18
2023-05-13T09:31:59.670Z,11.65
2023-05-13T09:34:34.632Z,8.88
2023-05-13T09:37:06.297Z,11.55
2023-05-13T09:39:38.196Z,12.35
2023-05-13T09:42:05.695Z,11.85
2023-05-13T09:44:33.269Z,7.85
2023-05-13T09:47:02.461Z,18.75
2023-05-13T09:49:31.663Z,14.98
2023-05-13T09:51:58.635Z,11.25
2023-05-13T09:54:25.762Z,9.93
2023-05-13T09:56:59.303Z,9.00
2023-05-13T09:59:26.592Z,11.38
2023-05-13T10:01:56.055Z,9.27
2023-05-13T10:04:23.724Z,12.70
2023-05-13T10:06:51.017Z,11.18
2023-05-13T10:09:18.278Z,11.27
2023-05-13T10:11:47.913Z,8.88
2023-05-13T10:14:15.541Z,8.23
2023-05-13T10:16:42.771Z,5.20
2023-05-13T10:19:10.722Z,7.32
2023-05-13T10:21:38.298Z,9.30
2023-05-13T10:24:06.878Z,4.95
2023-05-13T10:26:34.568Z,6.43
2023-05-13T10:29:03.414Z,12.02
2023-05-13T10:31:30.874Z,7.63
2023-05-13T10:33:58.811Z,7.93
2023-05-13T10:36:53.217Z,14.18
2023-05-13T10:39:46.607Z,9.00
2023-05-13T10:42:42.660Z,6.88
2023-05-13T10:45:10.785Z,9.82
2023-05-13T10:47:38.317Z,8.02
2023-05-13T10:50:23.489Z,5.57
2023-05-13T10:52:51.186Z,7.20
2023-05-13T10:55:20.456Z,5.40
2023-05-13T10:58:09.637Z,6.95
2023-05-13T11:00:37.532Z,4.90
2023-05-13T11:03:12.263Z,9.50
2023-05-13T11:05:41.606Z,8.43
2023-05-13T11:08:08.480Z,6.80
2023-05-13T11:10:35.315Z,6.78
2023-05-13T11:13:20.696Z,6.28
2023-05-13T11:15:53.020Z,6.07
2023-05-13T11:18:20.798Z,6.38
2023-05-13T11:20:53.494Z,3.85
2023-05-13T11:23:20.885Z,5.90
2023-05-13T11:26:09.957Z,4.85
2023-05-13T11:29:06.182Z,5.22
2023-05-13T11:31:50.397Z,7.05
2023-05-13T11:34:19.354Z,4.18
2023-05-13T11:37:08.648Z,5.90
2023-05-13T11:39:36.302Z,5.75
2023-05-13T11:42:07.768Z,6.05
2023-05-13T11:44:34.928Z,4.50
2023-05-13T11:47:08.531Z,7.95
2023-05-13T11:49:49.212Z,5.57
2023-05-13T11:52:20.274Z,4.97
2023-05-13T11:54:53.586Z,5.57
2023-05-13T11:57:25.940Z,4.63
2023-05-13T12:00:05.001Z,5.22
2023-05-13T12:02:40.635Z,5.40
2023-05-13T12:05:09.265Z,6.00
2023-05-13T12:07:37.582Z,7.13
2023-05-13T12:10:06.116Z,6.55
2023-05-13T12:12:41.473Z,5.93
2023-05-13T12:15:11.552Z,7.43
2023-05-13T12:17:38.822Z,3.22
2023-05-13T12:20:06.434Z,4.03
2023-05-13T12:22:42.471Z,7.78
2023-05-13T12:25:40.590Z,4.57
2023-05-13T12:28:16.780Z,10.40
2023-05-13T12:31:01.979Z,3.75
2023-05-13T12:33:41.611Z,6.45
2023-05-13T12:36:35.990Z,5.30
2023-05-13T12:39:07.851Z,6.18
2023-05-13T12:41:38.543Z,4.13
2023-05-13T12:44:08.508Z,5.43
2023-05-13T12:46:36.043Z,3.90
2023-05-13T12:49:04.785Z,4.68
2023-05-13T12:51:33.200Z,3.97
2023-05-13T12:54:00.931Z,4.50
2023-05-13T12:56:27.779Z,4.97
2023-05-13T12:58:54.904Z,4.32
2023-05-13T13:01:22.286Z,3.72
2023-05-13T13:03:49.277Z,5.32
2023-05-13T13:06:16.411Z,3.25
2023-05-13T13:08:43.519Z,6.28
2023-05-13T13:11:10.692Z,4.25
2023-05-13T13:13:39.445Z,6.38
2023-05-13T13:16:07.661Z,11.18
2023-05-13T13:18:34.423Z,7.15
2023-05-13T13:21:01.121Z,3.78
2023-05-13T13:23:27.957Z,6.97
2023-05-13T13:25:54.732Z,4.93
2023-05-13T13:28:21.388Z,9.38
2023-05-13T13:30:48.209Z,6.93
2023-05-13T13:33:16.396Z,6.60
2023-05-13T13:35:44.736Z,3.58
2023-05-13T13:38:12.001Z,6.28
2023-05-13T13:40:39.532Z,5.40
2023-05-13T13:43:07.316Z,5.10
2023-05-13T13:45:34.453Z,4.80
2023-05-13T13:48:01.683Z,3.10
2023-05-13T13:50:29.161Z,3.58
2023-05-13T13:52:56.027Z,4.30
2023-05-13T13:55:24.013Z,5.72
2023-05-13T13:57:51.924Z,5.00
2023-05-13T14:00:19.218Z,3.00
2023-05-13T14:02:46.215Z,5.15
2023-05-13T14:05:13.599Z,4.03
2023-05-13T14:07:40.661Z,4.80
2023-05-13T14:10:08.485Z,6.00
2023-05-13T14:12:38.254Z,4.22
2023-05-13T14:15:05.811Z,6.93
2023-05-13T14:17:33.321Z,4.53
2023-05-13T14:20:00.182Z,7.28
2023-05-13T14:22:27.032Z,3.45
2023-05-13T14:24:53.995Z,4.85
2023-05-13T14:27:21.877Z,4.75
2023-05-13T14:29:49.098Z,5.10
2023-05-13T14:32:16.433Z,4.32
2023-05-13T14:34:43.252Z,4.93
2023-05-13T14:37:10.218Z,5.03
2023-05-13T14:39:37.236Z,3.08
2023-05-13T14:42:04.316Z,4.20
2023-05-13T14:44:31.589Z,6.20
2023-05-13T14:46:58.450Z,4.53
2023-05-13T14:49:25.458Z,6.30
2023-05-13T14:51:52.389Z,6.55
2023-05-13T14:54:19.220Z,5.30
2023-05-13T14:56:46.219Z,3.65
2023-05-13T14:59:13.100Z,5.75
2023-05-13T15:01:40.194Z,4.82
2023-05-13T15:04:07.000Z,8.68
2023-05-13T15:06:34.199Z,5.13
2023-05-13T15:09:01.220Z,3.08
2023-05-13T15:11:28.987Z,6.63
2023-05-13T15:13:56.000Z,5.88
2023-05-13T15:16:22.883Z,6.38
2023-05-13T15:18:50.391Z,6.00
2023-05-13T15:21:17.499Z,3.40
2023-05-13T15:23:44.292Z,3.78
2023-05-13T15:26:11.335Z,7.45
2023-05-13T15:28:38.413Z,4.47
2023-05-13T15:31:06.173Z,5.50
2023-05-13T15:33:33.139Z,5.05
2023-05-13T15:36:00.268Z,6.53
2023-05-13T15:38:27.474Z,4.35
2023-05-13T15:40:54.332Z,5.00
2023-05-13T15:43:21.079Z,4.82
2023-05-13T15:45:49.756Z,4.85
2023-05-13T15:48:17.436Z,6.57
2023-05-13T15:50:44.583Z,3.45
2023-05-13T15:53:11.510Z,6.40
2023-05-13T15:55:39.442Z,4.57
2023-05-13T15:58:06.977Z,3.40
2023-05-13T16:00:34.287Z,5.10
2023-05-13T16:03:01.468Z,4.15
2023-05-13T16:05:28.647Z,5.97
2023-05-13T16:07:57.315Z,7.85
2023-05-13T16:10:24.659Z,5.40
2023-05-13T16:12:51.591Z,5.03
2023-05-13T16:15:18.632Z,3.65
2023-05-13T16:17:45.637Z,7.43
2023-05-13T16:20:13.352Z,4.53
2023-05-13T16:22:40.549Z,7.32
2023-05-13T16:25:10.100Z,5.80
2023-05-13T16:27:38.716Z,5.32
2023-05-13T16:30:07.733Z,6.50
2023-05-13T16:32:34.959Z,4.60
2023-05-13T16:35:02.833Z,4.32
2023-05-13T16:37:30.257Z,6.45
2023-05-13T16:39:57.437Z,5.05
2023-05-13T16:42:24.177Z,5.80
2023-05-13T16:44:52.038Z,5.40
2023-05-13T16:47:18.781Z,4.68
2023-05-13T16:49:45.767Z,3.83
2023-05-13T16:52:12.502Z,7.90
2023-05-13T16:54:39.320Z,5.22
2023-05-13T16:57:06.164Z,4.85
2023-05-13T16:59:33.031Z,6.07
2023-05-13T17:02:00.157Z,4.35
2023-05-13T17:04:28.319Z,5.82
2023-05-13T17:06:56.826Z,5.65
2023-05-13T17:09:25.779Z,6.45
2023-05-13T17:11:54.064Z,3.97
2023-05-13T17:14:21.201Z,3.75
2023-05-13T17:16:48.404Z,6.55
2023-05-13T17:19:15.497Z,4.00
2023-05-13T17:21:42.297Z,4.47
2023-05-13T17:24:09.335Z,5.38
2023-05-13T17:26:37.619Z,5.07
2023-05-13T17:29:05.538Z,5.75
2023-05-13T17:31:32.571Z,10.68
2023-05-13T17:33:59.842Z,5.40
2023-05-13T17:36:26.605Z,5.97
2023-05-13T17:38:53.328Z,5.90
2023-05-13T17:41:20.079Z,4.75
2023-05-13T17:43:46.827Z,3.97
2023-05-13T17:46:13.531Z,4.00
2023-05-13T17:48:40.339Z,9.07
2023-05-13T17:51:07.181Z,6.43
2023-05-13T17:53:35.054Z,6.65
2023-05-13T17:56:02.073Z,5.50
2023-05-13T17:58:28.802Z,5.00
2023-05-13T18:00:55.568Z,7.53
2023-05-13T18:03:23.226Z,7.10
2023-05-13T18:05:50.038Z,6.78
2023-05-13T18:08:16.827Z,6.97
2023-05-13T18:10:43.589Z,7.28
2023-05-13T18:13:11.225Z,7.97
2023-05-13T18:15:37.898Z,5.57
2023-05-13T18:18:05.097Z,6.53
2023-05-13T18:20:32.885Z,5.20
2023-05-13T18:23:00.103Z,5.32
2023-05-13T18:25:26.994Z,6.00
2023-05-13T18:27:54.795Z,8.35
2023-05-13T18:30:21.863Z,9.52
2023-05-13T18:32:48.796Z,7.45
2023-05-13T18:35:16.074Z,8.82
2023-05-13T18:37:42.776Z,7.05
2023-05-13T18:40:09.964Z,8.23
2023-05-13T18:42:36.649Z,10.40
2023-05-13T18:45:03.705Z,5.85
2023-05-13T18:47:30.508Z,5.93
2023-05-13T18:49:57.573Z,6.72
2023-05-13T18:52:24.456Z,5.13
2023-05-13T18:54:51.700Z,6.57
2023-05-13T18:57:20.787Z,7.68
2023-05-13T18:59:47.836Z,4.60
2023-05-13T19:02:14.914Z,4.90
2023-05-13T19:04:41.876Z,9.32
2023-05-13T19:07:08.611Z,5.50
2023-05-13T19:09:35.956Z,7.68
2023-05-13T19:12:02.848Z,4.15
2023-05-13T19:14:29.556Z,6.32
2023-05-13T19:16:56.498Z,6.20
2023-05-13T19:19:24.487Z,4.50
2023-05-13T19:21:51.250Z,7.03
2023-05-13T19:24:17.911Z,5.25
2023-05-13T19:26:44.661Z,5.57
2023-05-13T19:29:11.645Z,7.93
2023-05-13T19:31:38.633Z,8.95
2023-05-13T19:34:07.416Z,4.93
2023-05-13T19:36:34.197Z,4.57
2023-05-13T19:39:01.070Z,9.27
2023-05-13T19:41:27.995Z,8.75
2023-05-13T19:43:54.745Z,7.32
2023-05-13T19:46:21.618Z,4.95
2023-05-13T19:48:48.698Z,6.32
2023-05-13T19:51:15.665Z,3.63
2023-05-13T19:53:42.410Z,4.82
2023-05-13T19:56:09.319Z,4.45
2023-05-13T19:58:36.534Z,3.80
2023-05-13T20:01:03.262Z,6.40
2023-05-13T20:03:29.980Z,3.45
2023-05-13T20:05:56.811Z,6.90
2023-05-13T20:08:23.641Z,4.80
2023-05-13T20:10:50.424Z,6.57
2023-05-13T20:13:17.220Z,4.43
2023-05-13T20:15:43.937Z,5.47
2023-05-13T20:18:11.054Z,7.18
2023-05-13T20:20:37.880Z,5.10
2023-05-13T20:23:04.565Z,8.13
2023-05-13T20:25:31.740Z,10.23
2023-05-13T20:30:54.306Z,8.43
2023-05-13T20:33:21.101Z,8.23
2023-05-13T20:35:47.820Z,11.35
2023-05-13T20:38:14.503Z,8.75
2023-05-13T20:40:41.329Z,9.13
2023-05-13T20:43:08.100Z,11.05
2023-05-13T20:45:38.901Z,8.20
2023-05-13T20:48:06.542Z,8.48
2023-05-13T20:50:33.441Z,11.50
2023-05-13T20:53:00.586Z,9.38
2023-05-13T20:55:27.350Z,11.45
2023-05-13T20:57:54.030Z,12.00
2023-05-13T21:00:20.967Z,11.70
2023-05-13T21:02:48.735Z,9.38
2023-05-13T21:05:15.716Z,13.32
2023-05-13T21:07:42.394Z,10.77
2023-05-13T21:10:09.500Z,12.65
2023-05-13T21:12:36.317Z,12.70
2023-05-13T21:15:03.171Z,12.07
2023-05-13T21:17:29.921Z,13.82
2023-05-13T21:19:56.566Z,11.68
2023-05-13T21:22:23.212Z,9.48
2023-05-13T21:24:50.429Z,10.23
2023-05-13T21:27:17.091Z,10.50
2023-05-13T21:29:43.819Z,10.95
2023-05-13T21:32:11.981Z,12.20
2023-05-13T21:34:38.688Z,10.77
2023-05-13T21:37:05.909Z,9.45
2023-05-13T21:39:32.599Z,10.57
2023-05-13T21:42:00.612Z,11.85
2023-05-13T21:44:28.789Z,11.73
2023-05-13T21:46:55.419Z,10.02
2023-05-13T21:49:22.143Z,11.70
2023-05-13T21:51:48.797Z,15.95
2023-05-13T21:54:15.717Z,11.15
2023-05-13T21:56:42.440Z,13.50
2023-05-13T21:59:09.076Z,16.60
2023-05-13T22:01:35.986Z,15.23
2023-05-13T22:04:02.737Z,11.30
2023-05-13T22:06:29.386Z,14.35
2023-05-13T22:08:56.098Z,10.02
2023-05-13T22:11:23.229Z,12.27
2023-05-13T22:13:49.891Z,10.45
2023-05-13T22:16:16.756Z,15.48
2023-05-13T22:18:43.839Z,10.93
2023-05-13T22:21:10.734Z,18.27
2023-05-13T22:23:37.576Z,12.63
2023-05-13T22:26:04.940Z,13.63
2023-05-13T22:28:31.691Z,15.02
2023-05-13T22:30:58.474Z,13.68
2023-05-13T22:33:25.608Z,12.68
2023-05-13T22:35:52.416Z,12.02
2023-05-13T22:38:19.058Z,10.73
2023-05-13T22:40:45.833Z,9.50
2023-05-13T22:43:12.564Z,11.50
2023-05-13T22:45:39.245Z,14.25
2023-05-13T22:48:06.280Z,10.82
2023-05-13T22:50:33.006Z,16.77
2023-05-13T22:52:59.681Z,13.18
2023-05-13T22:55:26.411Z,13.88
2023-05-13T22:57:53.091Z,16.80
2023-05-13T23:00:19.996Z,11.25
2023-05-13T23:02:46.749Z,9.70
2023-05-13T23:05:13.521Z,9.35
2023-05-13T23:07:40.239Z,11.55
2023-05-13T23:10:07.413Z,12.25
2023-05-13T23:12:34.133Z,14.10
2023-05-13T23:15:00.873Z,9.05
2023-05-13T23:17:27.731Z,12.18
2023-05-13T23:19:54.484Z,14.65
2023-05-13T23:22:21.196Z,14.82
2023-05-13T23:24:47.900Z,13.75
2023-05-13T23:27:14.584Z,10.40
2023-05-13T23:29:41.803Z,9.85
2023-05-13T23:32:08.631Z,12.90
2023-05-13T23:34:35.462Z,13.88
2023-05-13T23:37:02.151Z,11.10
2023-05-13T23:39:28.796Z,13.05
2023-05-13T23:41:55.481Z,10.75
2023-05-13T23:44:22.255Z,11.63
2023-05-13T23:46:49.283Z,12.65
2023-05-13T23:49:16.458Z,11.93
2023-05-13T23:51:43.147Z,10.45
2023-05-13T23:54:09.801Z,10.80
2023-05-13T23:56:36.551Z,9.52
2023-05-13T23:59:03.197Z,14.57
